createdAt,value
2022-11-05T00:01:10.572Z,12.98
2022-11-05T00:08:30.358Z,12.97
2022-11-05T00:15:50.817Z,12.94
2022-11-05T00:23:20.917Z,12.93
2022-11-05T00:30:23.741Z,12.83
2022-11-05T00:37:27.566Z,12.82
2022-11-05T00:44:47.916Z,12.72
2022-11-05T00:52:09.475Z,12.73
2022-11-05T00:59:11.039Z,12.67
2022-11-05T01:06:14.103Z,12.72
2022-11-05T01:13:20.692Z,12.67
2022-11-05T01:20:22.452Z,12.68
2022-11-05T01:27:24.031Z,12.62
2022-11-05T01:34:25.617Z,12.68
2022-11-05T01:41:27.201Z,12.69
2022-11-05T01:48:32.176Z,12.66
2022-11-05T01:55:35.469Z,12.61
2022-11-05T02:02:37.121Z,12.62
2022-11-05T02:09:56.925Z,12.58
2022-11-05T02:17:03.001Z,12.55
2022-11-05T02:24:15.035Z,12.52
2022-11-05T02:31:47.968Z,12.48
2022-11-05T02:39:23.402Z,12.42
2022-11-05T02:46:36.630Z,12.30
2022-11-05T02:54:00.118Z,12.25
2022-11-05T03:01:06.646Z,12.22
2022-11-05T03:08:13.211Z,12.18
2022-11-05T03:15:39.324Z,12.14
2022-11-05T03:23:05.330Z,12.05
2022-11-05T03:30:08.957Z,12.05
2022-11-05T03:37:10.501Z,12.03
2022-11-05T03:44:12.831Z,12.00
2022-11-05T03:51:17.590Z,11.98
2022-11-05T03:58:20.386Z,11.96
2022-11-05T04:05:21.958Z,11.88
2022-11-05T04:12:41.883Z,11.87
2022-11-05T04:20:02.342Z,11.87
2022-11-05T04:27:04.648Z,11.79
2022-11-05T04:34:06.232Z,11.67
2022-11-05T04:41:12.966Z,11.71
2022-11-05T04:48:14.581Z,11.66
2022-11-05T04:55:16.263Z,11.58
2022-11-05T05:02:17.924Z,11.57
2022-11-05T05:09:19.521Z,11.58
2022-11-05T05:16:25.353Z,11.51
2022-11-05T05:23:26.897Z,11.53
2022-11-05T05:30:28.446Z,11.52
2022-11-05T05:37:30.007Z,11.48
2022-11-05T05:44:31.576Z,11.45
2022-11-05T05:51:33.129Z,11.39
2022-11-05T05:58:39.038Z,11.25
2022-11-05T06:05:40.669Z,11.30
2022-11-05T06:12:42.237Z,11.32
2022-11-05T06:19:43.941Z,11.26
2022-11-05T06:26:45.506Z,11.25
2022-11-05T06:33:47.308Z,11.23
2022-11-05T06:40:48.848Z,11.20
2022-11-05T06:47:55.908Z,11.19
2022-11-05T06:54:57.464Z,11.19
2022-11-05T07:01:59.046Z,11.16
2022-11-05T07:09:00.660Z,11.18
2022-11-05T07:16:02.211Z,11.18
2022-11-05T07:23:06.561Z,11.18
2022-11-05T07:30:08.965Z,11.16
2022-11-05T07:37:10.520Z,11.12
2022-11-05T07:44:12.464Z,11.12
2022-11-05T07:51:14.060Z,11.16
2022-11-05T07:58:15.701Z,11.23
2022-11-05T08:05:17.363Z,11.35
2022-11-05T08:12:18.992Z,11.43
2022-11-05T08:19:20.627Z,11.55
2022-11-05T08:26:22.179Z,11.55
2022-11-05T08:33:24.185Z,11.58
2022-11-05T08:40:26.381Z,11.59
2022-11-05T08:47:27.940Z,11.60
2022-11-05T08:54:29.554Z,11.67
2022-11-05T09:01:32.283Z,11.83
2022-11-05T09:08:33.954Z,12.06
2022-11-05T09:15:35.715Z,12.08
2022-11-05T09:22:42.175Z,12.21
2022-11-05T09:29:44.940Z,12.24
2022-11-05T09:36:46.483Z,12.27
2022-11-05T09:43:55.862Z,12.28
2022-11-05T09:50:58.189Z,12.34
2022-11-05T09:58:01.560Z,12.35
2022-11-05T10:05:09.736Z,12.43
2022-11-05T10:12:14.883Z,12.47
2022-11-05T10:19:23.830Z,12.55
2022-11-05T10:26:27.092Z,12.63
2022-11-05T10:33:35.258Z,12.76
2022-11-05T10:40:49.817Z,12.84
2022-11-05T10:48:15.709Z,12.88
2022-11-05T10:55:35.192Z,12.90
2022-11-05T11:02:36.828Z,12.95
2022-11-05T11:09:38.425Z,13.03
2022-11-05T11:16:44.579Z,13.23
2022-11-05T11:24:06.875Z,13.30
2022-11-05T11:31:16.350Z,13.22
2022-11-05T11:38:17.993Z,13.37
2022-11-05T11:45:33.302Z,13.44
2022-11-05T11:52:36.465Z,13.56
2022-11-05T12:00:07.277Z,13.71
2022-11-05T12:07:30.092Z,13.72
2022-11-05T12:14:46.051Z,13.70
2022-11-05T12:22:06.171Z,13.81
2022-11-05T12:29:35.777Z,13.78
2022-11-05T12:36:53.853Z,13.99
2022-11-05T12:44:18.802Z,14.05
2022-11-05T12:51:27.457Z,14.00
2022-11-05T12:58:31.598Z,14.01
2022-11-05T13:05:36.207Z,13.94
2022-11-05T13:12:39.066Z,13.86
2022-11-05T13:19:48.774Z,13.76
2022-11-05T13:27:04.630Z,13.79
2022-11-05T13:34:11.129Z,13.76
2022-11-05T13:41:30.847Z,13.68
2022-11-05T13:48:46.458Z,13.66
2022-11-05T13:56:09.919Z,13.63
2022-11-05T14:03:19.997Z,13.65
2022-11-05T14:10:37.726Z,13.81
2022-11-05T14:18:02.170Z,13.87
2022-11-05T14:25:30.097Z,13.97
2022-11-05T14:32:45.619Z,14.03
2022-11-05T14:39:47.847Z,14.07
2022-11-05T14:46:50.723Z,14.06
2022-11-05T14:54:04.057Z,14.02
2022-11-05T15:01:07.583Z,14.02
2022-11-05T15:08:32.442Z,13.97
2022-11-05T15:15:44.514Z,13.86
2022-11-05T15:22:51.746Z,13.78
2022-11-05T15:29:53.473Z,13.70
2022-11-05T15:36:56.949Z,13.62
2022-11-05T15:43:58.518Z,13.57
2022-11-05T15:51:00.087Z,13.46
2022-11-05T15:58:06.293Z,13.46
2022-11-05T16:05:11.538Z,13.42
2022-11-05T16:12:19.380Z,13.32
2022-11-05T16:19:47.202Z,13.26
2022-11-05T16:27:02.904Z,13.22
2022-11-05T16:34:04.946Z,13.10
2022-11-05T16:41:06.562Z,13.06
2022-11-05T16:48:12.371Z,13.00
2022-11-05T16:55:14.517Z,12.94
2022-11-05T17:02:16.305Z,12.87
2022-11-05T17:09:18.081Z,12.82
2022-11-05T17:16:19.662Z,12.74
2022-11-05T17:23:22.552Z,12.69
2022-11-05T17:30:24.488Z,12.70
2022-11-05T17:37:26.059Z,12.67
2022-11-05T17:44:27.629Z,12.58
2022-11-05T17:51:29.208Z,12.51
2022-11-05T17:58:30.831Z,12.49
2022-11-05T18:05:33.812Z,12.44
2022-11-05T18:12:35.645Z,12.38
2022-11-05T18:19:40.174Z,12.38
2022-11-05T18:26:42.229Z,12.33
2022-11-05T18:33:43.825Z,12.29
2022-11-05T18:40:45.410Z,12.24
2022-11-05T18:47:46.987Z,12.21
2022-11-05T18:54:48.570Z,12.16
2022-11-05T19:01:50.355Z,12.13
2022-11-05T19:08:52.056Z,12.03
2022-11-05T19:15:53.656Z,11.99
2022-11-05T19:22:55.266Z,11.90
2022-11-05T19:29:56.929Z,11.85
2022-11-05T19:36:58.534Z,11.79
2022-11-05T19:44:01.691Z,11.72
2022-11-05T19:51:07.958Z,11.65
2022-11-05T19:58:09.852Z,11.58
2022-11-05T20:05:12.684Z,11.51
2022-11-05T20:12:14.381Z,11.44
2022-11-05T20:19:17.547Z,11.38
2022-11-05T20:26:19.126Z,11.33
2022-11-05T20:33:20.822Z,11.30
2022-11-05T20:40:22.389Z,11.20
2022-11-05T20:47:23.959Z,11.12
2022-11-05T20:54:25.622Z,11.06
2022-11-05T21:01:29.238Z,11.05
2022-11-05T21:08:31.642Z,10.99
2022-11-05T21:15:33.164Z,10.97
2022-11-05T21:22:34.723Z,10.93
2022-11-05T21:29:37.088Z,10.83
2022-11-05T21:36:39.440Z,10.74
2022-11-05T21:43:42.283Z,10.69
2022-11-05T21:51:02.457Z,10.64
2022-11-05T21:58:32.938Z,10.62
2022-11-05T22:05:34.577Z,10.52
2022-11-05T22:12:36.132Z,10.51
2022-11-05T22:19:37.732Z,10.40
2022-11-05T22:26:39.472Z,10.40
2022-11-05T22:33:41.138Z,10.35
2022-11-05T22:40:42.723Z,10.32
2022-11-05T22:47:44.333Z,10.25
2022-11-05T22:54:47.621Z,10.24
2022-11-05T23:01:49.397Z,10.24
2022-11-05T23:09:09.585Z,10.22
2022-11-05T23:16:29.970Z,10.20
2022-11-05T23:23:50.414Z,10.18
2022-11-05T23:31:10.558Z,10.13
2022-11-05T23:38:30.978Z,10.15
2022-11-05T23:45:47.852Z,10.16
2022-11-05T23:52:49.433Z,10.12
2022-11-05T23:59:50.974Z,10.04
